sensor_id;sensor_type;location;lat;lon;timestamp;P1;durP1;ratioP1;P2;durP2;ratioP2
6842;SDS011;3460;52.028;8.916;2023-03-19T00:01:48;5.67;;;3.00;;
6842;SDS011;3460;52.028;8.916;2023-03-19T00:04:15;3.47;;;2.73;;
6842;SDS011;3460;52.028;8.916;2023-03-19T00:06:42;3.97;;;3.10;;
6842;SDS011;3460;52.028;8.916;2023-03-19T00:09:09;6.67;;;3.60;;
6842;SDS011;3460;52.028;8.916;2023-03-19T00:11:38;5.07;;;4.33;;
6842;SDS011;3460;52.028;8.916;2023-03-19T00:14:04;6.50;;;4.60;;
6842;SDS011;3460;52.028;8.916;2023-03-19T00:16:31;8.53;;;4.07;;
6842;SDS011;3460;52.028;8.916;2023-03-19T00:18:58;4.43;;;3.80;;
6842;SDS011;3460;52.028;8.916;2023-03-19T00:21:26;7.10;;;3.97;;
6842;SDS011;3460;52.028;8.916;2023-03-19T00:23:53;5.67;;;3.50;;
6842;SDS011;3460;52.028;8.916;2023-03-19T00:26:25;4.00;;;3.50;;
6842;SDS011;3460;52.028;8.916;2023-03-19T00:28:53;7.13;;;3.83;;
6842;SDS011;3460;52.028;8.916;2023-03-19T00:31:20;5.23;;;3.43;;
6842;SDS011;3460;52.028;8.916;2023-03-19T00:33:48;7.13;;;3.90;;
6842;SDS011;3460;52.028;8.916;2023-03-19T00:36:15;5.00;;;3.70;;
6842;SDS011;3460;52.028;8.916;2023-03-19T00:38:42;6.37;;;4.00;;
6842;SDS011;3460;52.028;8.916;2023-03-19T00:41:09;5.33;;;3.60;;
6842;SDS011;3460;52.028;8.916;2023-03-19T00:43:36;4.30;;;3.50;;
6842;SDS011;3460;52.028;8.916;2023-03-19T00:46:05;4.60;;;3.30;;
6842;SDS011;3460;52.028;8.916;2023-03-19T00:48:32;4.90;;;3.47;;
6842;SDS011;3460;52.028;8.916;2023-03-19T00:51:01;6.30;;;3.10;;
6842;SDS011;3460;52.028;8.916;2023-03-19T00:53:28;3.93;;;3.20;;
6842;SDS011;3460;52.028;8.916;2023-03-19T00:55:55;6.87;;;3.47;;
6842;SDS011;3460;52.028;8.916;2023-03-19T00:58:22;5.70;;;3.70;;
6842;SDS011;3460;52.028;8.916;2023-03-19T01:00:50;3.90;;;3.00;;
6842;SDS011;3460;52.028;8.916;2023-03-19T01:03:19;12.17;;;3.70;;
6842;SDS011;3460;52.028;8.916;2023-03-19T01:05:46;7.73;;;4.03;;
6842;SDS011;3460;52.028;8.916;2023-03-19T01:08:13;6.60;;;3.53;;
6842;SDS011;3460;52.028;8.916;2023-03-19T01:10:41;6.73;;;3.57;;
6842;SDS011;3460;52.028;8.916;2023-03-19T01:13:08;6.00;;;3.43;;
6842;SDS011;3460;52.028;8.916;2023-03-19T01:15:35;4.83;;;3.77;;
6842;SDS011;3460;52.028;8.916;2023-03-19T01:18:02;5.57;;;3.83;;
6842;SDS011;3460;52.028;8.916;2023-03-19T01:20:31;7.50;;;4.17;;
6842;SDS011;3460;52.028;8.916;2023-03-19T01:22:57;7.27;;;4.83;;
6842;SDS011;3460;52.028;8.916;2023-03-19T01:25:25;5.87;;;4.37;;
6842;SDS011;3460;52.028;8.916;2023-03-19T01:27:52;5.33;;;4.30;;
6842;SDS011;3460;52.028;8.916;2023-03-19T01:30:19;7.07;;;4.50;;
6842;SDS011;3460;52.028;8.916;2023-03-19T01:32:46;4.67;;;4.10;;
6842;SDS011;3460;52.028;8.916;2023-03-19T01:35:13;5.83;;;4.37;;
6842;SDS011;3460;52.028;8.916;2023-03-19T01:37:41;5.63;;;4.00;;
6842;SDS011;3460;52.028;8.916;2023-03-19T01:40:09;6.73;;;3.80;;
6842;SDS011;3460;52.028;8.916;2023-03-19T01:42:49;5.43;;;3.83;;
6842;SDS011;3460;52.028;8.916;2023-03-19T01:45:30;5.10;;;3.93;;
6842;SDS011;3460;52.028;8.916;2023-03-19T01:47:59;4.60;;;3.67;;
6842;SDS011;3460;52.028;8.916;2023-03-19T01:50:27;7.83;;;5.00;;
6842;SDS011;3460;52.028;8.916;2023-03-19T01:53:01;10.00;;;5.80;;
6842;SDS011;3460;52.028;8.916;2023-03-19T01:55:28;6.00;;;4.40;;
6842;SDS011;3460;52.028;8.916;2023-03-19T01:57:56;7.97;;;4.27;;
6842;SDS011;3460;52.028;8.916;2023-03-19T02:00:23;6.87;;;4.07;;
6842;SDS011;3460;52.028;8.916;2023-03-19T02:02:51;6.77;;;3.13;;
6842;SDS011;3460;52.028;8.916;2023-03-19T02:05:21;8.17;;;3.47;;
6842;SDS011;3460;52.028;8.916;2023-03-19T02:07:51;4.00;;;2.97;;
6842;SDS011;3460;52.028;8.916;2023-03-19T02:10:21;3.47;;;3.10;;
6842;SDS011;3460;52.028;8.916;2023-03-19T02:12:48;4.77;;;3.33;;
6842;SDS011;3460;52.028;8.916;2023-03-19T02:15:15;5.40;;;2.97;;
6842;SDS011;3460;52.028;8.916;2023-03-19T02:17:42;4.57;;;2.80;;
6842;SDS011;3460;52.028;8.916;2023-03-19T02:20:12;6.50;;;3.40;;
6842;SDS011;3460;52.028;8.916;2023-03-19T02:22:46;8.20;;;3.30;;
6842;SDS011;3460;52.028;8.916;2023-03-19T02:25:18;8.20;;;3.43;;
6842;SDS011;3460;52.028;8.916;2023-03-19T02:27:53;3.77;;;3.00;;
6842;SDS011;3460;52.028;8.916;2023-03-19T02:30:22;7.97;;;3.63;;
6842;SDS011;3460;52.028;8.916;2023-03-19T02:32:50;3.73;;;3.20;;
6842;SDS011;3460;52.028;8.916;2023-03-19T02:35:17;5.00;;;3.80;;
6842;SDS011;3460;52.028;8.916;2023-03-19T02:37:44;3.30;;;3.00;;
6842;SDS011;3460;52.028;8.916;2023-03-19T02:40:12;5.33;;;3.10;;
6842;SDS011;3460;52.028;8.916;2023-03-19T02:42:44;4.67;;;3.13;;
6842;SDS011;3460;52.028;8.916;2023-03-19T02:45:13;5.37;;;2.90;;
6842;SDS011;3460;52.028;8.916;2023-03-19T02:47:40;8.53;;;2.97;;
6842;SDS011;3460;52.028;8.916;2023-03-19T02:50:08;4.47;;;3.10;;
6842;SDS011;3460;52.028;8.916;2023-03-19T02:52:35;7.17;;;3.40;;
6842;SDS011;3460;52.028;8.916;2023-03-19T02:55:02;6.13;;;3.83;;
6842;SDS011;3460;52.028;8.916;2023-03-19T02:57:29;7.27;;;4.10;;
6842;SDS011;3460;52.028;8.916;2023-03-19T02:59:56;6.90;;;3.80;;
6842;SDS011;3460;52.028;8.916;2023-03-19T03:02:24;7.77;;;4.93;;
6842;SDS011;3460;52.028;8.916;2023-03-19T03:04:51;5.37;;;3.57;;
6842;SDS011;3460;52.028;8.916;2023-03-19T03:07:18;8.50;;;4.13;;
6842;SDS011;3460;52.028;8.916;2023-03-19T03:09:45;5.50;;;3.90;;
6842;SDS011;3460;52.028;8.916;2023-03-19T03:12:11;5.90;;;4.13;;
6842;SDS011;3460;52.028;8.916;2023-03-19T03:14:38;8.07;;;3.77;;
6842;SDS011;3460;52.028;8.916;2023-03-19T03:17:05;7.10;;;3.90;;
6842;SDS011;3460;52.028;8.916;2023-03-19T03:19:34;7.23;;;4.10;;
6842;SDS011;3460;52.028;8.916;2023-03-19T03:22:01;5.93;;;3.50;;
6842;SDS011;3460;52.028;8.916;2023-03-19T03:24:28;5.70;;;3.53;;
6842;SDS011;3460;52.028;8.916;2023-03-19T03:26:55;6.83;;;3.90;;
6842;SDS011;3460;52.028;8.916;2023-03-19T03:29:22;4.03;;;3.53;;
6842;SDS011;3460;52.028;8.916;2023-03-19T03:31:48;6.40;;;3.50;;
6842;SDS011;3460;52.028;8.916;2023-03-19T03:34:15;6.83;;;3.80;;
6842;SDS011;3460;52.028;8.916;2023-03-19T03:36:44;5.90;;;3.40;;
6842;SDS011;3460;52.028;8.916;2023-03-19T03:39:11;5.43;;;3.90;;
6842;SDS011;3460;52.028;8.916;2023-03-19T03:41:38;4.93;;;4.00;;
6842;SDS011;3460;52.028;8.916;2023-03-19T03:44:06;6.57;;;3.60;;
6842;SDS011;3460;52.028;8.916;2023-03-19T03:46:33;8.90;;;3.70;;
6842;SDS011;3460;52.028;8.916;2023-03-19T03:49:00;5.43;;;3.57;;
6842;SDS011;3460;52.028;8.916;2023-03-19T03:51:27;7.87;;;4.10;;
6842;SDS011;3460;52.028;8.916;2023-03-19T03:53:55;9.47;;;3.70;;
6842;SDS011;3460;52.028;8.916;2023-03-19T03:56:22;7.63;;;3.50;;
6842;SDS011;3460;52.028;8.916;2023-03-19T03:58:48;6.13;;;3.63;;
6842;SDS011;3460;52.028;8.916;2023-03-19T04:01:16;5.80;;;3.47;;
6842;SDS011;3460;52.028;8.916;2023-03-19T04:03:44;5.47;;;3.37;;
6842;SDS011;3460;52.028;8.916;2023-03-19T04:06:11;8.87;;;3.87;;
6842;SDS011;3460;52.028;8.916;2023-03-19T04:08:40;6.70;;;3.97;;
6842;SDS011;3460;52.028;8.916;2023-03-19T04:11:09;7.00;;;3.73;;
6842;SDS011;3460;52.028;8.916;2023-03-19T04:13:36;7.20;;;4.07;;
6842;SDS011;3460;52.028;8.916;2023-03-19T04:16:03;10.23;;;3.93;;
6842;SDS011;3460;52.028;8.916;2023-03-19T04:18:30;7.07;;;4.43;;
6842;SDS011;3460;52.028;8.916;2023-03-19T04:20:57;6.40;;;4.23;;
6842;SDS011;3460;52.028;8.916;2023-03-19T04:23:24;7.43;;;3.73;;
6842;SDS011;3460;52.028;8.916;2023-03-19T04:25:51;10.60;;;4.20;;
6842;SDS011;3460;52.028;8.916;2023-03-19T04:28:19;4.50;;;3.93;;
6842;SDS011;3460;52.028;8.916;2023-03-19T04:30:46;6.33;;;3.50;;
6842;SDS011;3460;52.028;8.916;2023-03-19T04:33:13;5.63;;;3.80;;
6842;SDS011;3460;52.028;8.916;2023-03-19T04:35:40;5.70;;;4.20;;
6842;SDS011;3460;52.028;8.916;2023-03-19T04:38:06;6.30;;;4.47;;
6842;SDS011;3460;52.028;8.916;2023-03-19T04:40:34;4.40;;;3.73;;
6842;SDS011;3460;52.028;8.916;2023-03-19T04:43:01;5.83;;;3.67;;
6842;SDS011;3460;52.028;8.916;2023-03-19T04:45:29;6.67;;;3.40;;
6842;SDS011;3460;52.028;8.916;2023-03-19T04:47:56;3.97;;;3.10;;
6842;SDS011;3460;52.028;8.916;2023-03-19T04:50:23;4.80;;;3.13;;
6842;SDS011;3460;52.028;8.916;2023-03-19T04:52:50;5.97;;;3.33;;
6842;SDS011;3460;52.028;8.916;2023-03-19T04:55:16;6.23;;;3.60;;
6842;SDS011;3460;52.028;8.916;2023-03-19T04:57:43;4.83;;;3.50;;
6842;SDS011;3460;52.028;8.916;2023-03-19T05:00:11;5.97;;;3.40;;
6842;SDS011;3460;52.028;8.916;2023-03-19T05:02:41;5.40;;;3.60;;
6842;SDS011;3460;52.028;8.916;2023-03-19T05:05:08;4.63;;;3.70;;
6842;SDS011;3460;52.028;8.916;2023-03-19T05:07:36;5.83;;;3.50;;
6842;SDS011;3460;52.028;8.916;2023-03-19T05:10:03;6.17;;;3.80;;
6842;SDS011;3460;52.028;8.916;2023-03-19T05:12:30;9.50;;;3.73;;
6842;SDS011;3460;52.028;8.916;2023-03-19T05:14:57;5.40;;;3.63;;
6842;SDS011;3460;52.028;8.916;2023-03-19T05:17:24;7.97;;;3.83;;
6842;SDS011;3460;52.028;8.916;2023-03-19T05:19:53;6.83;;;3.77;;
6842;SDS011;3460;52.028;8.916;2023-03-19T05:22:19;6.43;;;3.70;;
6842;SDS011;3460;52.028;8.916;2023-03-19T05:24:46;5.43;;;3.80;;
6842;SDS011;3460;52.028;8.916;2023-03-19T05:27:13;11.97;;;3.70;;
6842;SDS011;3460;52.028;8.916;2023-03-19T05:29:40;7.60;;;4.17;;
6842;SDS011;3460;52.028;8.916;2023-03-19T05:32:07;10.37;;;4.13;;
6842;SDS011;3460;52.028;8.916;2023-03-19T05:34:35;4.27;;;3.50;;
6842;SDS011;3460;52.028;8.916;2023-03-19T05:37:03;9.70;;;4.10;;
6842;SDS011;3460;52.028;8.916;2023-03-19T05:39:30;6.37;;;3.67;;
6842;SDS011;3460;52.028;8.916;2023-03-19T05:41:57;9.03;;;5.10;;
6842;SDS011;3460;52.028;8.916;2023-03-19T05:44:24;6.63;;;4.20;;
6842;SDS011;3460;52.028;8.916;2023-03-19T05:46:51;6.47;;;4.47;;
6842;SDS011;3460;52.028;8.916;2023-03-19T05:49:18;5.63;;;4.00;;
6842;SDS011;3460;52.028;8.916;2023-03-19T05:51:46;6.63;;;4.10;;
6842;SDS011;3460;52.028;8.916;2023-03-19T05:54:14;9.23;;;4.20;;
6842;SDS011;3460;52.028;8.916;2023-03-19T05:56:41;7.10;;;4.17;;
6842;SDS011;3460;52.028;8.916;2023-03-19T05:59:07;7.37;;;4.10;;
6842;SDS011;3460;52.028;8.916;2023-03-19T06:01:34;7.70;;;4.67;;
6842;SDS011;3460;52.028;8.916;2023-03-19T06:04:01;6.10;;;4.13;;
6842;SDS011;3460;52.028;8.916;2023-03-19T06:06:28;6.77;;;4.03;;
6842;SDS011;3460;52.028;8.916;2023-03-19T06:08:55;5.23;;;3.93;;
6842;SDS011;3460;52.028;8.916;2023-03-19T06:11:24;7.03;;;4.00;;
6842;SDS011;3460;52.028;8.916;2023-03-19T06:13:51;8.47;;;3.60;;
6842;SDS011;3460;52.028;8.916;2023-03-19T06:16:18;5.23;;;3.30;;
6842;SDS011;3460;52.028;8.916;2023-03-19T06:18:44;6.17;;;3.23;;
6842;SDS011;3460;52.028;8.916;2023-03-19T06:21:11;5.63;;;3.90;;
6842;SDS011;3460;52.028;8.916;2023-03-19T06:23:38;8.10;;;3.93;;
6842;SDS011;3460;52.028;8.916;2023-03-19T06:26:05;4.37;;;3.20;;
6842;SDS011;3460;52.028;8.916;2023-03-19T06:28:34;4.80;;;3.67;;
6842;SDS011;3460;52.028;8.916;2023-03-19T06:31:01;9.37;;;3.10;;
6842;SDS011;3460;52.028;8.916;2023-03-19T06:33:28;6.03;;;3.37;;
6842;SDS011;3460;52.028;8.916;2023-03-19T06:35:56;8.87;;;3.83;;
6842;SDS011;3460;52.028;8.916;2023-03-19T06:38:23;5.17;;;3.60;;
6842;SDS011;3460;52.028;8.916;2023-03-19T06:40:50;6.93;;;3.50;;
6842;SDS011;3460;52.028;8.916;2023-03-19T06:43:17;6.20;;;3.70;;
6842;SDS011;3460;52.028;8.916;2023-03-19T06:45:45;4.63;;;3.73;;
6842;SDS011;3460;52.028;8.916;2023-03-19T06:48:12;6.67;;;4.13;;
6842;SDS011;3460;52.028;8.916;2023-03-19T06:50:39;7.13;;;3.90;;
6842;SDS011;3460;52.028;8.916;2023-03-19T06:53:06;7.10;;;4.30;;
6842;SDS011;3460;52.028;8.916;2023-03-19T06:55:32;7.17;;;4.50;;
6842;SDS011;3460;52.028;8.916;2023-03-19T06:57:59;6.57;;;4.27;;
6842;SDS011;3460;52.028;8.916;2023-03-19T07:00:26;7.43;;;4.17;;
6842;SDS011;3460;52.028;8.916;2023-03-19T07:02:54;11.13;;;7.67;;
6842;SDS011;3460;52.028;8.916;2023-03-19T07:05:21;15.00;;;8.40;;
6842;SDS011;3460;52.028;8.916;2023-03-19T07:07:48;6.27;;;4.80;;
6842;SDS011;3460;52.028;8.916;2023-03-19T07:10:16;8.47;;;4.90;;
6842;SDS011;3460;52.028;8.916;2023-03-19T07:12:44;14.70;;;5.20;;
6842;SDS011;3460;52.028;8.916;2023-03-19T07:15:11;7.17;;;5.13;;
6842;SDS011;3460;52.028;8.916;2023-03-19T07:17:38;9.37;;;5.20;;
6842;SDS011;3460;52.028;8.916;2023-03-19T07:20:07;9.13;;;5.07;;
6842;SDS011;3460;52.028;8.916;2023-03-19T07:22:35;9.60;;;5.00;;
6842;SDS011;3460;52.028;8.916;2023-03-19T07:25:03;5.93;;;4.60;;
6842;SDS011;3460;52.028;8.916;2023-03-19T07:27:30;12.67;;;6.40;;
6842;SDS011;3460;52.028;8.916;2023-03-19T07:29:57;10.83;;;6.43;;
6842;SDS011;3460;52.028;8.916;2023-03-19T07:32:23;16.40;;;7.17;;
6842;SDS011;3460;52.028;8.916;2023-03-19T07:34:50;22.73;;;8.90;;
6842;SDS011;3460;52.028;8.916;2023-03-19T07:37:18;15.13;;;7.87;;
6842;SDS011;3460;52.028;8.916;2023-03-19T07:39:45;9.37;;;6.10;;
6842;SDS011;3460;52.028;8.916;2023-03-19T07:42:12;11.60;;;5.90;;
6842;SDS011;3460;52.028;8.916;2023-03-19T07:44:39;8.10;;;5.50;;
6842;SDS011;3460;52.028;8.916;2023-03-19T07:47:06;8.23;;;5.47;;
6842;SDS011;3460;52.028;8.916;2023-03-19T07:49:32;10.20;;;5.53;;
6842;SDS011;3460;52.028;8.916;2023-03-19T07:52:00;9.90;;;5.47;;
6842;SDS011;3460;52.028;8.916;2023-03-19T07:54:28;5.77;;;4.60;;
6842;SDS011;3460;52.028;8.916;2023-03-19T07:56:55;9.13;;;5.73;;
6842;SDS011;3460;52.028;8.916;2023-03-19T07:59:22;9.07;;;5.50;;
6842;SDS011;3460;52.028;8.916;2023-03-19T08:01:48;10.00;;;5.10;;
6842;SDS011;3460;52.028;8.916;2023-03-19T08:04:15;8.60;;;5.33;;
6842;SDS011;3460;52.028;8.916;2023-03-19T08:06:43;7.80;;;5.33;;
6842;SDS011;3460;52.028;8.916;2023-03-19T08:09:09;6.70;;;5.10;;
6842;SDS011;3460;52.028;8.916;2023-03-19T08:11:38;6.63;;;5.37;;
6842;SDS011;3460;52.028;8.916;2023-03-19T08:14:05;8.03;;;4.97;;
6842;SDS011;3460;52.028;8.916;2023-03-19T08:16:32;9.83;;;5.10;;
6842;SDS011;3460;52.028;8.916;2023-03-19T08:18:59;8.13;;;5.20;;
6842;SDS011;3460;52.028;8.916;2023-03-19T08:21:26;7.43;;;5.53;;
6842;SDS011;3460;52.028;8.916;2023-03-19T08:23:53;7.27;;;5.17;;
6842;SDS011;3460;52.028;8.916;2023-03-19T08:26:20;6.97;;;4.87;;
6842;SDS011;3460;52.028;8.916;2023-03-19T08:28:49;7.70;;;4.67;;
6842;SDS011;3460;52.028;8.916;2023-03-19T08:31:16;11.13;;;5.10;;
6842;SDS011;3460;52.028;8.916;2023-03-19T08:33:43;8.43;;;5.53;;
6842;SDS011;3460;52.028;8.916;2023-03-19T08:36:10;7.67;;;5.23;;
6842;SDS011;3460;52.028;8.916;2023-03-19T08:38:39;7.07;;;4.87;;
6842;SDS011;3460;52.028;8.916;2023-03-19T08:41:06;9.67;;;5.07;;
6842;SDS011;3460;52.028;8.916;2023-03-19T08:43:34;7.10;;;5.10;;
6842;SDS011;3460;52.028;8.916;2023-03-19T08:46:04;7.63;;;5.07;;
6842;SDS011;3460;52.028;8.916;2023-03-19T08:48:30;6.43;;;4.50;;
6842;SDS011;3460;52.028;8.916;2023-03-19T08:50:58;7.37;;;5.03;;
6842;SDS011;3460;52.028;8.916;2023-03-19T08:53:26;6.40;;;4.60;;
6842;SDS011;3460;52.028;8.916;2023-03-19T08:55:53;6.17;;;4.57;;
6842;SDS011;3460;52.028;8.916;2023-03-19T08:58:22;6.73;;;4.83;;
6842;SDS011;3460;52.028;8.916;2023-03-19T09:00:50;6.63;;;4.53;;
6842;SDS011;3460;52.028;8.916;2023-03-19T09:03:19;5.70;;;3.70;;
6842;SDS011;3460;52.028;8.916;2023-03-19T09:05:46;5.70;;;3.70;;
6842;SDS011;3460;52.028;8.916;2023-03-19T09:08:12;4.90;;;2.87;;
6842;SDS011;3460;52.028;8.916;2023-03-19T09:10:39;6.80;;;3.03;;
6842;SDS011;3460;52.028;8.916;2023-03-19T09:13:06;6.87;;;2.50;;
6842;SDS011;3460;52.028;8.916;2023-03-19T09:15:33;4.37;;;2.20;;
6842;SDS011;3460;52.028;8.916;2023-03-19T09:18:00;4.93;;;2.30;;
6842;SDS011;3460;52.028;8.916;2023-03-19T09:20:28;5.10;;;2.20;;
6842;SDS011;3460;52.028;8.916;2023-03-19T09:22:55;4.00;;;1.77;;
6842;SDS011;3460;52.028;8.916;2023-03-19T09:25:21;3.13;;;1.67;;
6842;SDS011;3460;52.028;8.916;2023-03-19T09:27:48;2.93;;;1.40;;
6842;SDS011;3460;52.028;8.916;2023-03-19T09:30:15;3.83;;;1.90;;
6842;SDS011;3460;52.028;8.916;2023-03-19T09:32:42;4.47;;;1.70;;
6842;SDS011;3460;52.028;8.916;2023-03-19T09:35:09;4.67;;;1.70;;
6842;SDS011;3460;52.028;8.916;2023-03-19T09:37:37;4.57;;;1.50;;
6842;SDS011;3460;52.028;8.916;2023-03-19T09:40:04;2.70;;;1.70;;
6842;SDS011;3460;52.028;8.916;2023-03-19T09:42:40;4.07;;;1.57;;
6842;SDS011;3460;52.028;8.916;2023-03-19T09:45:18;2.47;;;1.80;;
6842;SDS011;3460;52.028;8.916;2023-03-19T09:47:46;2.40;;;1.50;;
6842;SDS011;3460;52.028;8.916;2023-03-19T09:50:18;4.53;;;2.03;;
6842;SDS011;3460;52.028;8.916;2023-03-19T09:52:50;2.80;;;1.83;;
6842;SDS011;3460;52.028;8.916;2023-03-19T09:55:27;10.70;;;2.10;;
6842;SDS011;3460;52.028;8.916;2023-03-19T09:58:01;2.20;;;1.80;;
6842;SDS011;3460;52.028;8.916;2023-03-19T10:00:36;3.83;;;2.10;;
6842;SDS011;3460;52.028;8.916;2023-03-19T10:03:05;2.50;;;2.03;;
6842;SDS011;3460;52.028;8.916;2023-03-19T10:05:50;6.00;;;1.90;;
6842;SDS011;3460;52.028;8.916;2023-03-19T10:08:32;5.60;;;2.50;;
6842;SDS011;3460;52.028;8.916;2023-03-19T10:11:16;4.33;;;2.90;;
6842;SDS011;3460;52.028;8.916;2023-03-19T10:13:57;4.73;;;2.87;;
6842;SDS011;3460;52.028;8.916;2023-03-19T10:16:33;4.03;;;2.70;;
6842;SDS011;3460;52.028;8.916;2023-03-19T10:19:04;4.00;;;2.27;;
6842;SDS011;3460;52.028;8.916;2023-03-19T10:21:31;3.07;;;2.03;;
6842;SDS011;3460;52.028;8.916;2023-03-19T10:24:05;4.73;;;2.40;;
6842;SDS011;3460;52.028;8.916;2023-03-19T10:26:39;6.13;;;2.57;;
6842;SDS011;3460;52.028;8.916;2023-03-19T10:29:07;4.77;;;2.60;;
6842;SDS011;3460;52.028;8.916;2023-03-19T10:31:42;3.50;;;2.63;;
6842;SDS011;3460;52.028;8.916;2023-03-19T10:34:16;4.73;;;2.90;;
6842;SDS011;3460;52.028;8.916;2023-03-19T10:36:57;5.03;;;2.80;;
6842;SDS011;3460;52.028;8.916;2023-03-19T10:39:27;4.43;;;3.27;;
6842;SDS011;3460;52.028;8.916;2023-03-19T10:41:57;3.07;;;2.50;;
6842;SDS011;3460;52.028;8.916;2023-03-19T10:44:33;3.97;;;2.90;;
6842;SDS011;3460;52.028;8.916;2023-03-19T10:47:08;4.33;;;2.57;;
6842;SDS011;3460;52.028;8.916;2023-03-19T10:49:36;3.73;;;2.70;;
6842;SDS011;3460;52.028;8.916;2023-03-19T10:52:03;4.13;;;3.00;;
6842;SDS011;3460;52.028;8.916;2023-03-19T10:54:33;5.13;;;3.00;;
6842;SDS011;3460;52.028;8.916;2023-03-19T10:57:05;3.77;;;2.90;;
6842;SDS011;3460;52.028;8.916;2023-03-19T10:59:45;4.40;;;2.97;;
6842;SDS011;3460;52.028;8.916;2023-03-19T11:02:16;10.90;;;7.33;;
6842;SDS011;3460;52.028;8.916;2023-03-19T11:04:45;3.83;;;2.80;;
6842;SDS011;3460;52.028;8.916;2023-03-19T11:07:12;3.23;;;2.90;;
6842;SDS011;3460;52.028;8.916;2023-03-19T11:09:44;4.17;;;3.20;;
6842;SDS011;3460;52.028;8.916;2023-03-19T11:12:19;3.60;;;3.00;;
6842;SDS011;3460;52.028;8.916;2023-03-19T11:14:49;6.30;;;3.20;;
6842;SDS011;3460;52.028;8.916;2023-03-19T11:17:20;3.70;;;3.00;;
6842;SDS011;3460;52.028;8.916;2023-03-19T11:19:49;3.87;;;2.80;;
6842;SDS011;3460;52.028;8.916;2023-03-19T11:22:19;4.10;;;2.70;;
6842;SDS011;3460;52.028;8.916;2023-03-19T11:24:51;4.53;;;3.10;;
6842;SDS011;3460;52.028;8.916;2023-03-19T11:27:25;10.57;;;5.50;;
6842;SDS011;3460;52.028;8.916;2023-03-19T11:29:53;4.63;;;2.80;;
6842;SDS011;3460;52.028;8.916;2023-03-19T11:32:31;3.23;;;2.30;;
6842;SDS011;3460;52.028;8.916;2023-03-19T11:35:16;3.90;;;2.30;;
6842;SDS011;3460;52.028;8.916;2023-03-19T11:37:51;5.10;;;2.40;;
6842;SDS011;3460;52.028;8.916;2023-03-19T11:40:23;3.60;;;2.30;;
6842;SDS011;3460;52.028;8.916;2023-03-19T11:43:04;2.60;;;2.10;;
6842;SDS011;3460;52.028;8.916;2023-03-19T11:45:43;2.93;;;1.90;;
6842;SDS011;3460;52.028;8.916;2023-03-19T11:48:26;2.60;;;1.93;;
6842;SDS011;3460;52.028;8.916;2023-03-19T11:51:06;13.47;;;8.70;;
6842;SDS011;3460;52.028;8.916;2023-03-19T11:53:37;3.10;;;2.77;;
6842;SDS011;3460;52.028;8.916;2023-03-19T11:56:17;3.30;;;2.17;;
6842;SDS011;3460;52.028;8.916;2023-03-19T11:59:08;4.40;;;2.47;;
6842;SDS011;3460;52.028;8.916;2023-03-19T12:01:59;3.73;;;2.33;;
6842;SDS011;3460;52.028;8.916;2023-03-19T12:04:49;5.00;;;2.07;;
6842;SDS011;3460;52.028;8.916;2023-03-19T12:07:27;3.93;;;2.37;;
6842;SDS011;3460;52.028;8.916;2023-03-19T12:10:02;4.93;;;2.93;;
6842;SDS011;3460;52.028;8.916;2023-03-19T12:12:48;4.00;;;2.90;;
6842;SDS011;3460;52.028;8.916;2023-03-19T12:15:23;4.80;;;3.07;;
6842;SDS011;3460;52.028;8.916;2023-03-19T12:17:57;3.23;;;2.83;;
6842;SDS011;3460;52.028;8.916;2023-03-19T12:20:36;4.97;;;3.10;;
6842;SDS011;3460;52.028;8.916;2023-03-19T12:23:16;5.50;;;3.80;;
6842;SDS011;3460;52.028;8.916;2023-03-19T12:25:58;4.60;;;3.80;;
6842;SDS011;3460;52.028;8.916;2023-03-19T12:28:31;5.30;;;3.97;;
6842;SDS011;3460;52.028;8.916;2023-03-19T12:31:07;6.07;;;3.67;;
6842;SDS011;3460;52.028;8.916;2023-03-19T12:33:47;4.30;;;3.53;;
6842;SDS011;3460;52.028;8.916;2023-03-19T12:36:22;4.53;;;3.63;;
6842;SDS011;3460;52.028;8.916;2023-03-19T12:38:53;4.37;;;3.80;;
6842;SDS011;3460;52.028;8.916;2023-03-19T12:41:28;6.70;;;4.47;;
6842;SDS011;3460;52.028;8.916;2023-03-19T12:43:58;5.80;;;4.17;;
6842;SDS011;3460;52.028;8.916;2023-03-19T12:46:30;5.17;;;3.73;;
6842;SDS011;3460;52.028;8.916;2023-03-19T12:49:00;6.97;;;4.30;;
6842;SDS011;3460;52.028;8.916;2023-03-19T12:51:31;4.57;;;4.10;;
6842;SDS011;3460;52.028;8.916;2023-03-19T12:54:02;5.27;;;4.10;;
6842;SDS011;3460;52.028;8.916;2023-03-19T12:56:34;6.03;;;4.43;;
6842;SDS011;3460;52.028;8.916;2023-03-19T12:59:08;4.87;;;4.03;;
6842;SDS011;3460;52.028;8.916;2023-03-19T13:01:40;4.23;;;3.83;;
6842;SDS011;3460;52.028;8.916;2023-03-19T13:04:13;4.90;;;4.40;;
6842;SDS011;3460;52.028;8.916;2023-03-19T13:06:46;7.37;;;4.13;;
6842;SDS011;3460;52.028;8.916;2023-03-19T13:09:19;5.47;;;3.87;;
6842;SDS011;3460;52.028;8.916;2023-03-19T13:11:53;4.97;;;3.90;;
6842;SDS011;3460;52.028;8.916;2023-03-19T13:14:28;5.93;;;3.87;;
6842;SDS011;3460;52.028;8.916;2023-03-19T13:17:00;4.53;;;3.90;;
6842;SDS011;3460;52.028;8.916;2023-03-19T13:19:33;4.87;;;4.07;;
6842;SDS011;3460;52.028;8.916;2023-03-19T13:22:08;5.27;;;3.90;;
6842;SDS011;3460;52.028;8.916;2023-03-19T13:24:38;4.30;;;3.90;;
6842;SDS011;3460;52.028;8.916;2023-03-19T13:27:09;6.43;;;4.13;;
6842;SDS011;3460;52.028;8.916;2023-03-19T13:29:51;5.73;;;4.30;;
6842;SDS011;3460;52.028;8.916;2023-03-19T13:32:26;5.30;;;3.93;;
6842;SDS011;3460;52.028;8.916;2023-03-19T13:35:18;5.70;;;4.33;;
6842;SDS011;3460;52.028;8.916;2023-03-19T13:37:59;4.50;;;3.90;;
6842;SDS011;3460;52.028;8.916;2023-03-19T13:40:37;4.97;;;4.17;;
6842;SDS011;3460;52.028;8.916;2023-03-19T13:43:19;6.40;;;4.00;;
6842;SDS011;3460;52.028;8.916;2023-03-19T13:46:04;3.90;;;3.50;;
6842;SDS011;3460;52.028;8.916;2023-03-19T13:49:01;4.50;;;3.40;;
6842;SDS011;3460;52.028;8.916;2023-03-19T13:51:34;4.93;;;3.77;;
6842;SDS011;3460;52.028;8.916;2023-03-19T13:54:05;5.93;;;3.60;;
6842;SDS011;3460;52.028;8.916;2023-03-19T13:56:54;5.33;;;3.53;;
6842;SDS011;3460;52.028;8.916;2023-03-19T13:59:30;7.20;;;3.70;;
6842;SDS011;3460;52.028;8.916;2023-03-19T14:01:59;5.83;;;3.83;;
6842;SDS011;3460;52.028;8.916;2023-03-19T14:04:27;4.13;;;3.40;;
6842;SDS011;3460;52.028;8.916;2023-03-19T14:06:56;2.47;;;2.10;;
6842;SDS011;3460;52.028;8.916;2023-03-19T14:09:35;3.80;;;1.80;;
6842;SDS011;3460;52.028;8.916;2023-03-19T14:12:09;2.70;;;2.10;;
6842;SDS011;3460;52.028;8.916;2023-03-19T14:14:45;6.83;;;3.10;;
6842;SDS011;3460;52.028;8.916;2023-03-19T14:17:17;3.13;;;2.80;;
6842;SDS011;3460;52.028;8.916;2023-03-19T14:19:46;5.13;;;2.83;;
6842;SDS011;3460;52.028;8.916;2023-03-19T14:22:17;5.67;;;3.20;;
6842;SDS011;3460;52.028;8.916;2023-03-19T14:24:53;4.30;;;3.13;;
6842;SDS011;3460;52.028;8.916;2023-03-19T14:27:25;3.90;;;3.07;;
6842;SDS011;3460;52.028;8.916;2023-03-19T14:29:57;4.67;;;3.37;;
6842;SDS011;3460;52.028;8.916;2023-03-19T14:32:30;4.07;;;3.27;;
6842;SDS011;3460;52.028;8.916;2023-03-19T14:35:00;4.67;;;3.33;;
6842;SDS011;3460;52.028;8.916;2023-03-19T14:37:33;12.17;;;9.73;;
6842;SDS011;3460;52.028;8.916;2023-03-19T14:40:10;7.70;;;5.47;;
6842;SDS011;3460;52.028;8.916;2023-03-19T14:42:49;4.73;;;3.30;;
6842;SDS011;3460;52.028;8.916;2023-03-19T14:45:39;4.70;;;4.20;;
6842;SDS011;3460;52.028;8.916;2023-03-19T14:48:16;13.07;;;10.47;;
6842;SDS011;3460;52.028;8.916;2023-03-19T14:54:02;5.10;;;3.63;;
6842;SDS011;3460;52.028;8.916;2023-03-19T14:56:32;4.17;;;3.40;;
6842;SDS011;3460;52.028;8.916;2023-03-19T14:59:01;4.30;;;3.80;;
6842;SDS011;3460;52.028;8.916;2023-03-19T15:01:31;4.00;;;3.40;;
6842;SDS011;3460;52.028;8.916;2023-03-19T15:04:03;4.73;;;3.83;;
6842;SDS011;3460;52.028;8.916;2023-03-19T15:06:33;6.27;;;3.83;;
6842;SDS011;3460;52.028;8.916;2023-03-19T15:09:05;4.03;;;3.60;;
6842;SDS011;3460;52.028;8.916;2023-03-19T15:11:35;4.90;;;3.90;;
6842;SDS011;3460;52.028;8.916;2023-03-19T15:14:20;4.93;;;3.70;;
6842;SDS011;3460;52.028;8.916;2023-03-19T15:17:04;5.40;;;4.17;;
6842;SDS011;3460;52.028;8.916;2023-03-19T15:19:38;4.43;;;4.00;;
6842;SDS011;3460;52.028;8.916;2023-03-19T15:22:10;5.17;;;3.97;;
6842;SDS011;3460;52.028;8.916;2023-03-19T15:24:38;9.07;;;5.93;;
6842;SDS011;3460;52.028;8.916;2023-03-19T15:27:18;7.80;;;4.90;;
6842;SDS011;3460;52.028;8.916;2023-03-19T15:29:47;14.93;;;7.40;;
6842;SDS011;3460;52.028;8.916;2023-03-19T15:32:28;8.43;;;6.37;;
6842;SDS011;3460;52.028;8.916;2023-03-19T15:34:58;6.90;;;5.10;;
6842;SDS011;3460;52.028;8.916;2023-03-19T15:37:25;5.27;;;4.60;;